< < Back
Terminal Aerodrome Forecast


Current Version              Previous Versions:   1  2  3  4  5  6  7  8  9  

Terminal Aerodrome Forecast

203
FTUS42 KGSP 032335
TAFGSP
TAF
KGSP 032335Z 0400/0424 24010G18KT P6SM SCT060
     FM040200 33005KT P6SM FEW060
     FM040800 27005KT P6SM FEW060
     FM041400 30007KT P6SM FEW060
     FM041800 27012G20KT P6SM SCT060=

Latest METAR

932
SAUS70 KWBC 040200 RRD
MTRGSP
METAR KGSP 040153Z 30006KT 10SM CLR 20/11 A2978 RMK AO2 SLP075
T02000111


USA.gov is the U.S. government's official web portal to all federal, state and local government web resources and services.